sensor_id;sensor_type;location;lat;lon;timestamp;temperature;humidity
3994;DHT22;2011;48.238;13.948;2024-01-15T00:00:19;-2.30;99.90
3994;DHT22;2011;48.238;13.948;2024-01-15T00:02:47;-2.40;99.90
3994;DHT22;2011;48.238;13.948;2024-01-15T00:05:14;-2.40;99.90
3994;DHT22;2011;48.238;13.948;2024-01-15T00:07:41;-2.30;99.90
3994;DHT22;2011;48.238;13.948;2024-01-15T00:10:08;-2.40;99.90
3994;DHT22;2011;48.238;13.948;2024-01-15T00:12:35;-2.40;99.90
3994;DHT22;2011;48.238;13.948;2024-01-15T00:15:03;-2.40;99.90
3994;DHT22;2011;48.238;13.948;2024-01-15T00:17:31;-2.50;99.90
3994;DHT22;2011;48.238;13.948;2024-01-15T00:19:59;-2.50;99.90
3994;DHT22;2011;48.238;13.948;2024-01-15T00:22:26;-2.50;99.90
3994;DHT22;2011;48.238;13.948;2024-01-15T00:24:53;-2.50;99.90
3994;DHT22;2011;48.238;13.948;2024-01-15T00:27:20;-2.50;99.90
3994;DHT22;2011;48.238;13.948;2024-01-15T00:29:47;-2.50;99.90
3994;DHT22;2011;48.238;13.948;2024-01-15T00:32:16;-2.50;99.90
3994;DHT22;2011;48.238;13.948;2024-01-15T00:34:44;-2.50;99.90
3994;DHT22;2011;48.238;13.948;2024-01-15T00:37:11;-2.60;99.90
3994;DHT22;2011;48.238;13.948;2024-01-15T00:39:38;-2.70;99.90
3994;DHT22;2011;48.238;13.948;2024-01-15T00:42:05;-2.70;99.90
3994;DHT22;2011;48.238;13.948;2024-01-15T00:44:32;-2.70;99.90
3994;DHT22;2011;48.238;13.948;2024-01-15T00:47:00;-2.70;99.90
3994;DHT22;2011;48.238;13.948;2024-01-15T00:49:27;-2.70;99.90
3994;DHT22;2011;48.238;13.948;2024-01-15T00:51:56;-2.70;99.90
3994;DHT22;2011;48.238;13.948;2024-01-15T00:54:23;-2.70;99.90
3994;DHT22;2011;48.238;13.948;2024-01-15T00:56:50;-2.70;99.90
3994;DHT22;2011;48.238;13.948;2024-01-15T00:59:17;-2.70;99.90
3994;DHT22;2011;48.238;13.948;2024-01-15T01:01:46;-2.70;99.90
3994;DHT22;2011;48.238;13.948;2024-01-15T01:04:13;-2.70;99.90
3994;DHT22;2011;48.238;13.948;2024-01-15T01:06:40;-2.80;99.90
3994;DHT22;2011;48.238;13.948;2024-01-15T01:09:09;-2.80;99.90
3994;DHT22;2011;48.238;13.948;2024-01-15T01:11:36;-2.80;99.90
3994;DHT22;2011;48.238;13.948;2024-01-15T01:14:03;-2.90;99.90
3994;DHT22;2011;48.238;13.948;2024-01-15T01:16:30;-2.90;99.90
3994;DHT22;2011;48.238;13.948;2024-01-15T01:19:00;-2.90;99.90
3994;DHT22;2011;48.238;13.948;2024-01-15T01:21:27;-3.00;99.90
3994;DHT22;2011;48.238;13.948;2024-01-15T01:23:54;-3.00;99.90
3994;DHT22;2011;48.238;13.948;2024-01-15T01:26:22;-3.10;99.90
3994;DHT22;2011;48.238;13.948;2024-01-15T01:28:49;-3.10;99.90
3994;DHT22;2011;48.238;13.948;2024-01-15T01:31:16;-3.20;99.90
3994;DHT22;2011;48.238;13.948;2024-01-15T01:33:43;-3.20;99.90
3994;DHT22;2011;48.238;13.948;2024-01-15T01:36:10;-3.20;99.90
3994;DHT22;2011;48.238;13.948;2024-01-15T01:38:38;-3.30;99.90
3994;DHT22;2011;48.238;13.948;2024-01-15T01:41:05;-3.20;99.90
3994;DHT22;2011;48.238;13.948;2024-01-15T01:43:33;-3.30;99.90
3994;DHT22;2011;48.238;13.948;2024-01-15T01:46:01;-3.20;99.90
3994;DHT22;2011;48.238;13.948;2024-01-15T01:48:29;-3.20;99.90
3994;DHT22;2011;48.238;13.948;2024-01-15T01:50:58;-3.20;99.90
3994;DHT22;2011;48.238;13.948;2024-01-15T01:53:26;-3.20;99.90
3994;DHT22;2011;48.238;13.948;2024-01-15T01:55:54;-3.30;99.90
3994;DHT22;2011;48.238;13.948;2024-01-15T01:58:21;-3.30;99.90
3994;DHT22;2011;48.238;13.948;2024-01-15T02:00:50;-3.30;99.90
3994;DHT22;2011;48.238;13.948;2024-01-15T02:03:16;-3.30;99.90
3994;DHT22;2011;48.238;13.948;2024-01-15T02:05:43;-3.30;99.90
3994;DHT22;2011;48.238;13.948;2024-01-15T02:08:11;-3.30;99.90
3994;DHT22;2011;48.238;13.948;2024-01-15T02:10:38;-3.30;99.90
3994;DHT22;2011;48.238;13.948;2024-01-15T02:13:05;-3.30;99.90
3994;DHT22;2011;48.238;13.948;2024-01-15T02:15:32;-3.30;99.90
3994;DHT22;2011;48.238;13.948;2024-01-15T02:18:02;-3.30;99.90
3994;DHT22;2011;48.238;13.948;2024-01-15T02:20:30;-3.30;99.90
3994;DHT22;2011;48.238;13.948;2024-01-15T02:23:10;-3.30;99.90
3994;DHT22;2011;48.238;13.948;2024-01-15T02:25:38;-3.30;99.90
3994;DHT22;2011;48.238;13.948;2024-01-15T02:28:06;-3.40;99.90
3994;DHT22;2011;48.238;13.948;2024-01-15T02:30:36;-3.50;99.90
3994;DHT22;2011;48.238;13.948;2024-01-15T02:33:04;-3.50;99.90
3994;DHT22;2011;48.238;13.948;2024-01-15T02:35:31;-3.50;99.90
3994;DHT22;2011;48.238;13.948;2024-01-15T02:37:59;-3.40;99.90
3994;DHT22;2011;48.238;13.948;2024-01-15T02:40:27;-3.50;99.90
3994;DHT22;2011;48.238;13.948;2024-01-15T02:42:54;-3.50;99.90
3994;DHT22;2011;48.238;13.948;2024-01-15T02:45:21;-3.50;99.90
3994;DHT22;2011;48.238;13.948;2024-01-15T02:47:48;-3.50;99.90
3994;DHT22;2011;48.238;13.948;2024-01-15T02:50:16;-3.40;99.90
3994;DHT22;2011;48.238;13.948;2024-01-15T02:52:43;-3.40;99.90
3994;DHT22;2011;48.238;13.948;2024-01-15T02:55:10;-3.30;99.90
3994;DHT22;2011;48.238;13.948;2024-01-15T02:57:38;-3.00;99.90
3994;DHT22;2011;48.238;13.948;2024-01-15T03:00:06;-2.70;99.90
3994;DHT22;2011;48.238;13.948;2024-01-15T03:02:36;-2.40;99.90
3994;DHT22;2011;48.238;13.948;2024-01-15T03:05:05;-2.30;99.90
3994;DHT22;2011;48.238;13.948;2024-01-15T03:07:32;-2.10;99.90
3994;DHT22;2011;48.238;13.948;2024-01-15T03:09:59;-1.90;99.90
3994;DHT22;2011;48.238;13.948;2024-01-15T03:12:26;-1.90;99.90
3994;DHT22;2011;48.238;13.948;2024-01-15T03:14:54;-1.80;99.90
3994;DHT22;2011;48.238;13.948;2024-01-15T03:17:21;-1.80;99.90
3994;DHT22;2011;48.238;13.948;2024-01-15T03:19:48;-1.80;99.90
3994;DHT22;2011;48.238;13.948;2024-01-15T03:22:16;-1.80;99.90
3994;DHT22;2011;48.238;13.948;2024-01-15T03:24:43;-1.80;99.90
3994;DHT22;2011;48.238;13.948;2024-01-15T03:27:10;-1.80;99.90
3994;DHT22;2011;48.238;13.948;2024-01-15T03:29:37;-1.80;99.90
3994;DHT22;2011;48.238;13.948;2024-01-15T03:32:06;-1.80;99.90
3994;DHT22;2011;48.238;13.948;2024-01-15T03:34:33;-1.80;99.90
3994;DHT22;2011;48.238;13.948;2024-01-15T03:37:00;-1.90;99.90
3994;DHT22;2011;48.238;13.948;2024-01-15T03:39:27;-1.80;99.90
3994;DHT22;2011;48.238;13.948;2024-01-15T03:41:54;-1.90;99.90
3994;DHT22;2011;48.238;13.948;2024-01-15T03:44:21;-1.90;99.90
3994;DHT22;2011;48.238;13.948;2024-01-15T03:46:48;-1.90;99.90
3994;DHT22;2011;48.238;13.948;2024-01-15T03:49:17;-2.00;99.90
3994;DHT22;2011;48.238;13.948;2024-01-15T03:51:44;-2.00;99.90
3994;DHT22;2011;48.238;13.948;2024-01-15T03:54:11;-2.00;99.90
3994;DHT22;2011;48.238;13.948;2024-01-15T03:56:38;-2.00;99.90
3994;DHT22;2011;48.238;13.948;2024-01-15T03:59:05;-2.00;99.90
3994;DHT22;2011;48.238;13.948;2024-01-15T04:01:32;-2.10;99.90
3994;DHT22;2011;48.238;13.948;2024-01-15T04:03:59;-2.00;99.90
3994;DHT22;2011;48.238;13.948;2024-01-15T04:06:27;-2.00;99.90
3994;DHT22;2011;48.238;13.948;2024-01-15T04:08:54;-2.00;99.90
3994;DHT22;2011;48.238;13.948;2024-01-15T04:11:21;-2.10;99.90
3994;DHT22;2011;48.238;13.948;2024-01-15T04:13:49;-2.00;99.90
3994;DHT22;2011;48.238;13.948;2024-01-15T04:16:16;-2.10;99.90
3994;DHT22;2011;48.238;13.948;2024-01-15T04:18:43;-2.10;99.90
3994;DHT22;2011;48.238;13.948;2024-01-15T04:21:10;-2.10;99.90
3994;DHT22;2011;48.238;13.948;2024-01-15T04:23:39;-2.10;99.90
3994;DHT22;2011;48.238;13.948;2024-01-15T04:26:06;-2.10;99.90
3994;DHT22;2011;48.238;13.948;2024-01-15T04:28:32;-2.10;99.90
3994;DHT22;2011;48.238;13.948;2024-01-15T04:30:59;-2.20;99.90
3994;DHT22;2011;48.238;13.948;2024-01-15T04:33:26;-2.10;99.90
3994;DHT22;2011;48.238;13.948;2024-01-15T04:35:53;-2.20;99.90
3994;DHT22;2011;48.238;13.948;2024-01-15T04:38:20;-2.20;99.90
3994;DHT22;2011;48.238;13.948;2024-01-15T04:40:48;-2.20;99.90
3994;DHT22;2011;48.238;13.948;2024-01-15T04:43:15;-2.20;99.90
3994;DHT22;2011;48.238;13.948;2024-01-15T04:45:42;-2.20;99.90
3994;DHT22;2011;48.238;13.948;2024-01-15T04:48:09;-2.30;99.90
3994;DHT22;2011;48.238;13.948;2024-01-15T04:50:36;-2.20;99.90
3994;DHT22;2011;48.238;13.948;2024-01-15T04:53:03;-2.30;99.90
3994;DHT22;2011;48.238;13.948;2024-01-15T04:55:30;-2.30;99.90
3994;DHT22;2011;48.238;13.948;2024-01-15T04:57:58;-2.30;99.90
3994;DHT22;2011;48.238;13.948;2024-01-15T05:00:25;-2.30;99.90
3994;DHT22;2011;48.238;13.948;2024-01-15T05:02:51;-2.30;99.90
3994;DHT22;2011;48.238;13.948;2024-01-15T05:05:18;-2.30;99.90
3994;DHT22;2011;48.238;13.948;2024-01-15T05:07:45;-2.30;99.90
3994;DHT22;2011;48.238;13.948;2024-01-15T05:10:12;-2.30;99.90
3994;DHT22;2011;48.238;13.948;2024-01-15T05:12:39;-2.30;99.90
3994;DHT22;2011;48.238;13.948;2024-01-15T05:15:07;-2.30;99.90
3994;DHT22;2011;48.238;13.948;2024-01-15T05:17:35;-2.30;99.90
3994;DHT22;2011;48.238;13.948;2024-01-15T05:20:02;-2.30;99.90
3994;DHT22;2011;48.238;13.948;2024-01-15T05:22:30;-2.30;99.90
3994;DHT22;2011;48.238;13.948;2024-01-15T05:24:57;-2.30;99.90
3994;DHT22;2011;48.238;13.948;2024-01-15T05:27:24;-2.30;99.90
3994;DHT22;2011;48.238;13.948;2024-01-15T05:29:51;-2.20;99.90
3994;DHT22;2011;48.238;13.948;2024-01-15T05:32:19;-2.20;99.90
3994;DHT22;2011;48.238;13.948;2024-01-15T05:34:46;-2.20;99.90
3994;DHT22;2011;48.238;13.948;2024-01-15T05:37:13;-2.20;99.90
3994;DHT22;2011;48.238;13.948;2024-01-15T05:39:39;-2.10;99.90
3994;DHT22;2011;48.238;13.948;2024-01-15T05:42:06;-2.10;99.90
3994;DHT22;2011;48.238;13.948;2024-01-15T05:44:33;-2.10;99.90
3994;DHT22;2011;48.238;13.948;2024-01-15T05:47:00;-2.10;99.90
3994;DHT22;2011;48.238;13.948;2024-01-15T05:49:29;-2.00;99.90
3994;DHT22;2011;48.238;13.948;2024-01-15T05:51:56;-2.00;99.90
3994;DHT22;2011;48.238;13.948;2024-01-15T05:54:23;-2.00;99.90
3994;DHT22;2011;48.238;13.948;2024-01-15T05:56:50;-2.00;99.90
3994;DHT22;2011;48.238;13.948;2024-01-15T05:59:17;-2.00;99.90
3994;DHT22;2011;48.238;13.948;2024-01-15T06:01:44;-1.90;99.90
3994;DHT22;2011;48.238;13.948;2024-01-15T06:04:11;-1.90;99.90
3994;DHT22;2011;48.238;13.948;2024-01-15T06:06:39;-1.90;99.90
3994;DHT22;2011;48.238;13.948;2024-01-15T06:09:06;-1.80;99.90
3994;DHT22;2011;48.238;13.948;2024-01-15T06:11:34;-1.80;99.90
3994;DHT22;2011;48.238;13.948;2024-01-15T06:14:01;-1.80;99.90
3994;DHT22;2011;48.238;13.948;2024-01-15T06:16:28;-1.80;99.90
3994;DHT22;2011;48.238;13.948;2024-01-15T06:18:55;-1.80;99.90
3994;DHT22;2011;48.238;13.948;2024-01-15T06:21:22;-1.70;99.90
3994;DHT22;2011;48.238;13.948;2024-01-15T06:23:51;-1.70;99.90
3994;DHT22;2011;48.238;13.948;2024-01-15T06:26:18;-1.70;99.90
3994;DHT22;2011;48.238;13.948;2024-01-15T06:28:45;-1.60;99.90
3994;DHT22;2011;48.238;13.948;2024-01-15T06:31:12;-1.60;99.90
3994;DHT22;2011;48.238;13.948;2024-01-15T06:33:39;-1.60;99.90
3994;DHT22;2011;48.238;13.948;2024-01-15T06:36:06;-1.60;99.90
3994;DHT22;2011;48.238;13.948;2024-01-15T06:38:33;-1.60;99.90
3994;DHT22;2011;48.238;13.948;2024-01-15T06:41:02;-1.60;99.90
3994;DHT22;2011;48.238;13.948;2024-01-15T06:43:29;-1.50;99.90
3994;DHT22;2011;48.238;13.948;2024-01-15T06:45:56;-1.50;99.90
3994;DHT22;2011;48.238;13.948;2024-01-15T06:48:23;-1.50;99.90
3994;DHT22;2011;48.238;13.948;2024-01-15T06:50:49;-1.50;99.90
3994;DHT22;2011;48.238;13.948;2024-01-15T06:53:16;-1.50;99.90
3994;DHT22;2011;48.238;13.948;2024-01-15T06:55:43;-1.50;99.90
3994;DHT22;2011;48.238;13.948;2024-01-15T06:58:12;-1.40;99.90
3994;DHT22;2011;48.238;13.948;2024-01-15T07:00:39;-1.40;99.90
3994;DHT22;2011;48.238;13.948;2024-01-15T07:03:06;-1.40;99.90
3994;DHT22;2011;48.238;13.948;2024-01-15T07:05:33;-1.30;99.90
3994;DHT22;2011;48.238;13.948;2024-01-15T07:08:00;-1.30;99.90
3994;DHT22;2011;48.238;13.948;2024-01-15T07:10:27;-1.30;99.90
3994;DHT22;2011;48.238;13.948;2024-01-15T07:12:54;-1.30;99.90
3994;DHT22;2011;48.238;13.948;2024-01-15T07:15:22;-1.20;99.90
3994;DHT22;2011;48.238;13.948;2024-01-15T07:17:49;-1.20;99.90
3994;DHT22;2011;48.238;13.948;2024-01-15T07:20:16;-1.20;99.90
3994;DHT22;2011;48.238;13.948;2024-01-15T07:22:45;-1.20;99.90
3994;DHT22;2011;48.238;13.948;2024-01-15T07:25:12;-1.20;99.90
3994;DHT22;2011;48.238;13.948;2024-01-15T07:27:39;-1.10;99.90
3994;DHT22;2011;48.238;13.948;2024-01-15T07:30:10;-1.10;99.90
3994;DHT22;2011;48.238;13.948;2024-01-15T07:32:39;-1.10;99.90
3994;DHT22;2011;48.238;13.948;2024-01-15T07:35:06;-1.10;99.90
3994;DHT22;2011;48.238;13.948;2024-01-15T07:37:34;-1.10;99.90
3994;DHT22;2011;48.238;13.948;2024-01-15T07:40:01;-1.10;99.90
3994;DHT22;2011;48.238;13.948;2024-01-15T07:42:30;-1.00;99.90
3994;DHT22;2011;48.238;13.948;2024-01-15T07:44:56;-1.00;99.90
3994;DHT22;2011;48.238;13.948;2024-01-15T07:47:23;-1.00;99.90
3994;DHT22;2011;48.238;13.948;2024-01-15T07:49:52;-1.00;99.90
3994;DHT22;2011;48.238;13.948;2024-01-15T07:52:19;-1.00;99.90
3994;DHT22;2011;48.238;13.948;2024-01-15T07:54:46;-1.00;99.90
3994;DHT22;2011;48.238;13.948;2024-01-15T07:57:13;-0.90;99.90
3994;DHT22;2011;48.238;13.948;2024-01-15T07:59:40;-0.90;99.90
3994;DHT22;2011;48.238;13.948;2024-01-15T08:02:07;-0.90;99.90
3994;DHT22;2011;48.238;13.948;2024-01-15T08:04:34;-0.90;99.90
3994;DHT22;2011;48.238;13.948;2024-01-15T08:07:02;-0.90;99.90
3994;DHT22;2011;48.238;13.948;2024-01-15T08:09:29;-0.80;99.90
3994;DHT22;2011;48.238;13.948;2024-01-15T08:11:56;-0.80;99.90
3994;DHT22;2011;48.238;13.948;2024-01-15T08:14:24;-0.80;99.90
3994;DHT22;2011;48.238;13.948;2024-01-15T08:16:50;-0.70;99.90
3994;DHT22;2011;48.238;13.948;2024-01-15T08:19:17;-0.70;99.90
3994;DHT22;2011;48.238;13.948;2024-01-15T08:21:45;-0.70;99.90
3994;DHT22;2011;48.238;13.948;2024-01-15T08:24:14;-0.60;99.90
3994;DHT22;2011;48.238;13.948;2024-01-15T08:26:42;-0.60;99.90
3994;DHT22;2011;48.238;13.948;2024-01-15T08:29:09;-0.50;99.90
3994;DHT22;2011;48.238;13.948;2024-01-15T08:31:36;-0.50;99.90
3994;DHT22;2011;48.238;13.948;2024-01-15T08:34:03;-0.40;99.90
3994;DHT22;2011;48.238;13.948;2024-01-15T08:36:30;-0.40;99.90
3994;DHT22;2011;48.238;13.948;2024-01-15T08:38:57;-0.30;99.90
3994;DHT22;2011;48.238;13.948;2024-01-15T08:41:26;-0.30;99.90
3994;DHT22;2011;48.238;13.948;2024-01-15T08:43:53;-0.30;99.90
3994;DHT22;2011;48.238;13.948;2024-01-15T08:46:20;-0.30;99.90
3994;DHT22;2011;48.238;13.948;2024-01-15T08:48:47;-0.40;99.90
3994;DHT22;2011;48.238;13.948;2024-01-15T08:51:14;-0.40;99.90
3994;DHT22;2011;48.238;13.948;2024-01-15T08:53:41;-0.40;99.90
3994;DHT22;2011;48.238;13.948;2024-01-15T08:56:08;-0.40;99.90
3994;DHT22;2011;48.238;13.948;2024-01-15T08:58:36;-0.40;99.90
3994;DHT22;2011;48.238;13.948;2024-01-15T09:01:03;-0.40;99.90
3994;DHT22;2011;48.238;13.948;2024-01-15T09:03:31;-0.40;99.90
3994;DHT22;2011;48.238;13.948;2024-01-15T09:05:59;-0.40;99.90
3994;DHT22;2011;48.238;13.948;2024-01-15T09:08:26;-0.40;99.90
3994;DHT22;2011;48.238;13.948;2024-01-15T09:10:53;-0.40;99.90
3994;DHT22;2011;48.238;13.948;2024-01-15T09:13:20;-0.30;99.90
3994;DHT22;2011;48.238;13.948;2024-01-15T09:15:48;-0.30;99.90
3994;DHT22;2011;48.238;13.948;2024-01-15T09:18:15;-0.30;99.90
3994;DHT22;2011;48.238;13.948;2024-01-15T09:20:42;-0.30;99.90
3994;DHT22;2011;48.238;13.948;2024-01-15T09:23:09;-0.30;99.90
3994;DHT22;2011;48.238;13.948;2024-01-15T09:25:36;-0.20;99.90
3994;DHT22;2011;48.238;13.948;2024-01-15T09:28:03;-0.20;99.90
3994;DHT22;2011;48.238;13.948;2024-01-15T09:30:30;-0.10;99.90
3994;DHT22;2011;48.238;13.948;2024-01-15T09:32:58;-0.10;99.90
3994;DHT22;2011;48.238;13.948;2024-01-15T09:35:25;0.00;99.90
3994;DHT22;2011;48.238;13.948;2024-01-15T09:37:52;0.10;99.90
3994;DHT22;2011;48.238;13.948;2024-01-15T09:40:20;0.20;99.90
3994;DHT22;2011;48.238;13.948;2024-01-15T09:42:47;0.20;99.90
3994;DHT22;2011;48.238;13.948;2024-01-15T09:45:14;0.20;99.90
3994;DHT22;2011;48.238;13.948;2024-01-15T09:47:42;0.30;99.90
3994;DHT22;2011;48.238;13.948;2024-01-15T09:50:10;0.30;99.90
3994;DHT22;2011;48.238;13.948;2024-01-15T09:52:38;0.30;99.90
3994;DHT22;2011;48.238;13.948;2024-01-15T09:55:06;0.40;99.90
3994;DHT22;2011;48.238;13.948;2024-01-15T09:57:34;0.40;99.90
3994;DHT22;2011;48.238;13.948;2024-01-15T10:00:02;0.40;99.90
3994;DHT22;2011;48.238;13.948;2024-01-15T10:02:31;0.40;99.90
3994;DHT22;2011;48.238;13.948;2024-01-15T10:04:58;0.40;99.90
3994;DHT22;2011;48.238;13.948;2024-01-15T10:07:26;0.50;99.90
3994;DHT22;2011;48.238;13.948;2024-01-15T10:09:56;0.50;99.90
3994;DHT22;2011;48.238;13.948;2024-01-15T10:12:24;0.50;99.90
3994;DHT22;2011;48.238;13.948;2024-01-15T10:14:52;0.50;99.90
3994;DHT22;2011;48.238;13.948;2024-01-15T10:17:21;0.60;99.90
3994;DHT22;2011;48.238;13.948;2024-01-15T10:19:48;0.60;99.90
3994;DHT22;2011;48.238;13.948;2024-01-15T10:22:15;0.70;99.90
3994;DHT22;2011;48.238;13.948;2024-01-15T10:24:44;0.80;99.90
3994;DHT22;2011;48.238;13.948;2024-01-15T10:27:12;0.90;99.90
3994;DHT22;2011;48.238;13.948;2024-01-15T10:29:41;0.90;99.90
3994;DHT22;2011;48.238;13.948;2024-01-15T10:32:09;1.00;99.90
3994;DHT22;2011;48.238;13.948;2024-01-15T10:34:38;1.00;99.90
3994;DHT22;2011;48.238;13.948;2024-01-15T10:37:07;1.00;99.90
3994;DHT22;2011;48.238;13.948;2024-01-15T10:39:35;1.00;99.90
3994;DHT22;2011;48.238;13.948;2024-01-15T10:42:04;1.00;99.90
3994;DHT22;2011;48.238;13.948;2024-01-15T10:44:32;1.00;99.90
3994;DHT22;2011;48.238;13.948;2024-01-15T10:46:59;1.00;99.90
3994;DHT22;2011;48.238;13.948;2024-01-15T10:49:26;1.00;99.90
3994;DHT22;2011;48.238;13.948;2024-01-15T10:51:55;1.10;99.90
3994;DHT22;2011;48.238;13.948;2024-01-15T10:54:23;1.10;99.90
3994;DHT22;2011;48.238;13.948;2024-01-15T10:56:50;1.00;99.90
3994;DHT22;2011;48.238;13.948;2024-01-15T10:59:20;1.00;99.90
3994;DHT22;2011;48.238;13.948;2024-01-15T11:01:48;1.00;99.90
3994;DHT22;2011;48.238;13.948;2024-01-15T11:04:16;1.00;99.90
3994;DHT22;2011;48.238;13.948;2024-01-15T11:06:45;1.00;99.90
3994;DHT22;2011;48.238;13.948;2024-01-15T11:09:12;1.00;99.90
3994;DHT22;2011;48.238;13.948;2024-01-15T11:11:41;1.00;99.90
3994;DHT22;2011;48.238;13.948;2024-01-15T11:14:08;1.00;99.90
3994;DHT22;2011;48.238;13.948;2024-01-15T11:17:04;1.00;99.90
3994;DHT22;2011;48.238;13.948;2024-01-15T11:19:38;1.00;99.90
3994;DHT22;2011;48.238;13.948;2024-01-15T11:22:07;1.00;99.90
3994;DHT22;2011;48.238;13.948;2024-01-15T11:24:36;1.00;99.90
3994;DHT22;2011;48.238;13.948;2024-01-15T11:27:04;1.00;99.90
3994;DHT22;2011;48.238;13.948;2024-01-15T11:29:33;1.00;99.90
3994;DHT22;2011;48.238;13.948;2024-01-15T11:32:02;1.00;99.90
3994;DHT22;2011;48.238;13.948;2024-01-15T11:34:59;0.90;99.90
3994;DHT22;2011;48.238;13.948;2024-01-15T11:37:28;0.90;99.90
3994;DHT22;2011;48.238;13.948;2024-01-15T11:39:59;0.90;99.90
3994;DHT22;2011;48.238;13.948;2024-01-15T11:42:27;0.90;99.90
3994;DHT22;2011;48.238;13.948;2024-01-15T11:44:54;1.00;99.90
3994;DHT22;2011;48.238;13.948;2024-01-15T11:50:24;1.00;99.90
3994;DHT22;2011;48.238;13.948;2024-01-15T11:52:59;1.00;99.90
3994;DHT22;2011;48.238;13.948;2024-01-15T11:55:27;1.00;99.90
3994;DHT22;2011;48.238;13.948;2024-01-15T11:57:57;1.10;99.90
3994;DHT22;2011;48.238;13.948;2024-01-15T12:00:25;1.10;99.90
3994;DHT22;2011;48.238;13.948;2024-01-15T12:02:52;1.20;99.90
3994;DHT22;2011;48.238;13.948;2024-01-15T12:05:20;1.20;99.90
3994;DHT22;2011;48.238;13.948;2024-01-15T12:07:49;1.20;99.90
3994;DHT22;2011;48.238;13.948;2024-01-15T12:10:17;1.20;99.90
3994;DHT22;2011;48.238;13.948;2024-01-15T12:12:54;1.20;99.90
3994;DHT22;2011;48.238;13.948;2024-01-15T12:15:24;1.20;99.90
3994;DHT22;2011;48.238;13.948;2024-01-15T12:17:51;1.20;99.90
3994;DHT22;2011;48.238;13.948;2024-01-15T12:20:18;1.20;99.90
3994;DHT22;2011;48.238;13.948;2024-01-15T12:22:47;1.20;99.90
3994;DHT22;2011;48.238;13.948;2024-01-15T12:25:14;1.20;99.90
3994;DHT22;2011;48.238;13.948;2024-01-15T12:27:41;1.20;99.90
3994;DHT22;2011;48.238;13.948;2024-01-15T12:30:11;1.20;99.90
3994;DHT22;2011;48.238;13.948;2024-01-15T12:32:40;1.20;99.90
3994;DHT22;2011;48.238;13.948;2024-01-15T12:35:08;1.20;99.90
3994;DHT22;2011;48.238;13.948;2024-01-15T12:37:35;1.20;99.90
3994;DHT22;2011;48.238;13.948;2024-01-15T12:40:04;1.20;99.90
3994;DHT22;2011;48.238;13.948;2024-01-15T12:42:32;1.20;99.90
3994;DHT22;2011;48.238;13.948;2024-01-15T12:45:00;1.20;99.90
3994;DHT22;2011;48.238;13.948;2024-01-15T12:47:26;1.30;99.90
3994;DHT22;2011;48.238;13.948;2024-01-15T12:49:53;1.30;99.90
3994;DHT22;2011;48.238;13.948;2024-01-15T12:52:20;1.30;99.90
3994;DHT22;2011;48.238;13.948;2024-01-15T12:54:48;1.30;99.90
3994;DHT22;2011;48.238;13.948;2024-01-15T12:57:16;1.30;99.90
3994;DHT22;2011;48.238;13.948;2024-01-15T12:59:43;1.30;99.90
3994;DHT22;2011;48.238;13.948;2024-01-15T13:02:11;1.30;99.90
3994;DHT22;2011;48.238;13.948;2024-01-15T13:04:38;1.30;99.90
3994;DHT22;2011;48.238;13.948;2024-01-15T13:07:05;1.30;99.90
3994;DHT22;2011;48.238;13.948;2024-01-15T13:09:32;1.30;99.90
3994;DHT22;2011;48.238;13.948;2024-01-15T13:12:00;1.30;99.90
3994;DHT22;2011;48.238;13.948;2024-01-15T13:14:29;1.30;99.90
3994;DHT22;2011;48.238;13.948;2024-01-15T13:16:56;1.30;99.90
3994;DHT22;2011;48.238;13.948;2024-01-15T13:19:24;1.40;99.90
3994;DHT22;2011;48.238;13.948;2024-01-15T13:21:51;1.40;99.90
3994;DHT22;2011;48.238;13.948;2024-01-15T13:24:19;1.40;99.90
3994;DHT22;2011;48.238;13.948;2024-01-15T13:26:46;1.40;99.90
3994;DHT22;2011;48.238;13.948;2024-01-15T13:29:13;1.40;99.90
3994;DHT22;2011;48.238;13.948;2024-01-15T13:31:41;1.40;99.90
3994;DHT22;2011;48.238;13.948;2024-01-15T13:34:10;1.40;99.90
3994;DHT22;2011;48.238;13.948;2024-01-15T13:36:37;1.40;99.90
3994;DHT22;2011;48.238;13.948;2024-01-15T13:39:04;1.40;99.90
3994;DHT22;2011;48.238;13.948;2024-01-15T13:41:34;1.40;99.90
3994;DHT22;2011;48.238;13.948;2024-01-15T13:44:01;1.40;99.90
3994;DHT22;2011;48.238;13.948;2024-01-15T13:46:29;1.40;99.90
3994;DHT22;2011;48.238;13.948;2024-01-15T13:48:57;1.40;99.90
3994;DHT22;2011;48.238;13.948;2024-01-15T13:51:25;1.50;99.90
3994;DHT22;2011;48.238;13.948;2024-01-15T13:53:52;1.50;99.90
3994;DHT22;2011;48.238;13.948;2024-01-15T13:56:19;1.50;99.90
3994;DHT22;2011;48.238;13.948;2024-01-15T13:58:46;1.50;99.90
3994;DHT22;2011;48.238;13.948;2024-01-15T14:01:15;1.50;99.90
3994;DHT22;2011;48.238;13.948;2024-01-15T14:03:43;1.50;99.90
3994;DHT22;2011;48.238;13.948;2024-01-15T14:06:11;1.50;99.90
3994;DHT22;2011;48.238;13.948;2024-01-15T14:08:38;1.50;99.90
3994;DHT22;2011;48.238;13.948;2024-01-15T14:11:05;1.50;99.90
3994;DHT22;2011;48.238;13.948;2024-01-15T14:13:32;1.60;99.90
3994;DHT22;2011;48.238;13.948;2024-01-15T14:16:00;1.60;99.90
3994;DHT22;2011;48.238;13.948;2024-01-15T14:18:27;1.50;99.90
3994;DHT22;2011;48.238;13.948;2024-01-15T14:20:54;1.50;99.90
3994;DHT22;2011;48.238;13.948;2024-01-15T14:23:22;1.50;99.90
3994;DHT22;2011;48.238;13.948;2024-01-15T14:25:49;1.50;99.90
3994;DHT22;2011;48.238;13.948;2024-01-15T14:28:17;1.50;99.90
3994;DHT22;2011;48.238;13.948;2024-01-15T14:30:44;1.40;99.90
3994;DHT22;2011;48.238;13.948;2024-01-15T14:33:11;1.40;99.90
3994;DHT22;2011;48.238;13.948;2024-01-15T14:35:38;1.40;99.90
3994;DHT22;2011;48.238;13.948;2024-01-15T14:38:05;1.40;99.90
3994;DHT22;2011;48.238;13.948;2024-01-15T14:40:34;1.40;99.90
3994;DHT22;2011;48.238;13.948;2024-01-15T14:43:03;1.40;99.90
3994;DHT22;2011;48.238;13.948;2024-01-15T14:45:30;1.30;99.90
3994;DHT22;2011;48.238;13.948;2024-01-15T14:47:57;1.30;99.90
3994;DHT22;2011;48.238;13.948;2024-01-15T14:50:24;1.20;99.90
3994;DHT22;2011;48.238;13.948;2024-01-15T14:52:52;1.30;99.90
3994;DHT22;2011;48.238;13.948;2024-01-15T14:55:19;1.30;99.90
3994;DHT22;2011;48.238;13.948;2024-01-15T14:57:50;1.30;99.90
3994;DHT22;2011;48.238;13.948;2024-01-15T15:00:18;1.30;99.90
3994;DHT22;2011;48.238;13.948;2024-01-15T15:02:45;1.20;99.90
3994;DHT22;2011;48.238;13.948;2024-01-15T15:05:13;1.20;99.90
3994;DHT22;2011;48.238;13.948;2024-01-15T15:07:42;1.20;99.90
3994;DHT22;2011;48.238;13.948;2024-01-15T15:10:10;1.20;99.90
3994;DHT22;2011;48.238;13.948;2024-01-15T15:12:37;1.20;99.90
3994;DHT22;2011;48.238;13.948;2024-01-15T15:15:07;1.20;99.90
3994;DHT22;2011;48.238;13.948;2024-01-15T15:17:37;1.20;99.90
3994;DHT22;2011;48.238;13.948;2024-01-15T15:20:05;1.30;99.90
3994;DHT22;2011;48.238;13.948;2024-01-15T15:22:32;1.30;99.90
3994;DHT22;2011;48.238;13.948;2024-01-15T15:24:59;1.30;99.90
3994;DHT22;2011;48.238;13.948;2024-01-15T15:27:26;1.30;99.90
3994;DHT22;2011;48.238;13.948;2024-01-15T15:29:54;1.30;99.90
3994;DHT22;2011;48.238;13.948;2024-01-15T15:32:23;1.30;99.90
3994;DHT22;2011;48.238;13.948;2024-01-15T15:34:50;1.30;99.90
3994;DHT22;2011;48.238;13.948;2024-01-15T15:37:17;1.30;99.90
3994;DHT22;2011;48.238;13.948;2024-01-15T15:39:44;1.30;99.90
3994;DHT22;2011;48.238;13.948;2024-01-15T15:42:11;1.30;99.90
3994;DHT22;2011;48.238;13.948;2024-01-15T15:44:39;1.30;99.90
3994;DHT22;2011;48.238;13.948;2024-01-15T15:47:12;1.30;99.90
3994;DHT22;2011;48.238;13.948;2024-01-15T15:49:41;1.30;99.90
3994;DHT22;2011;48.238;13.948;2024-01-15T15:52:08;1.20;99.90
3994;DHT22;2011;48.238;13.948;2024-01-15T15:54:36;1.20;99.90
3994;DHT22;2011;48.238;13.948;2024-01-15T15:57:03;1.20;99.90